Time;durP1;ratioP1;P1;durP2;ratioP2;P2;SDS_P1;SDS_P2;PMS_P1;PMS_P2;Temp;Humidity;BMP_temperature;BMP_pressure;BME280_temperature;BME280_humidity;BME280_pressure;Samples;Min_cycle;Max_cycle;Signal;HPM_P1;HPM_P2
2022/07/27 00:01:13;;;;;;;8.13;1.60;;;23.80;45.20;;;;;;5030281;28;20022;-74
2022/07/27 00:03:39;;;;;;;4.88;1.33;;;23.70;45.30;;;;;;5030522;28;20040;-73
2022/07/27 00:06:06;;;;;;;7.85;1.88;;;23.80;45.20;;;;;;5028922;28;20449;-73
2022/07/27 00:08:32;;;;;;;6.35;1.05;;;23.80;45.00;;;;;;5030671;28;20029;-74
2022/07/27 00:10:58;;;;;;;7.57;1.60;;;23.70;45.00;;;;;;5029783;28;20391;-73
2022/07/27 00:13:24;;;;;;;6.82;1.33;;;23.70;44.60;;;;;;5029048;28;20034;-72
2022/07/27 00:15:49;;;;;;;6.30;1.45;;;23.70;44.40;;;;;;5012523;28;20156;-73
2022/07/27 00:18:15;;;;;;;4.57;1.48;;;23.70;44.50;;;;;;5030396;28;20033;-73
2022/07/27 00:20:41;;;;;;;9.82;1.35;;;23.70;44.40;;;;;;5030042;28;20509;-73
2022/07/27 00:23:08;;;;;;;5.80;1.42;;;23.70;44.30;;;;;;5025729;28;20025;-73
2022/07/27 00:25:34;;;;;;;6.22;1.33;;;23.70;44.20;;;;;;5028560;28;20037;-73
2022/07/27 00:28:00;;;;;;;8.68;1.27;;;23.70;44.00;;;;;;5029023;28;20075;-74
2022/07/27 00:30:26;;;;;;;5.93;1.25;;;23.70;44.10;;;;;;5030127;28;20033;-73
2022/07/27 00:32:53;;;;;;;5.68;1.10;;;23.70;43.90;;;;;;5029809;28;20551;-73
2022/07/27 00:35:18;;;;;;;5.40;1.08;;;23.70;43.80;;;;;;5011943;28;20371;-72
2022/07/27 00:37:44;;;;;;;6.32;1.27;;;23.60;43.80;;;;;;5030145;28;20032;-73
2022/07/27 00:40:10;;;;;;;5.43;1.27;;;23.60;43.90;;;;;;5029955;28;20056;-73
2022/07/27 00:42:36;;;;;;;5.70;1.50;;;23.70;43.80;;;;;;5029255;28;20033;-74
2022/07/27 00:45:04;;;;;;;6.25;1.52;;;23.70;43.80;;;;;;5025799;28;20393;-73
2022/07/27 00:47:29;;;;;;;7.18;1.33;;;23.60;44.00;;;;;;5029903;28;20182;-74
2022/07/27 00:49:57;;;;;;;6.68;1.70;;;23.60;43.90;;;;;;5029850;28;20533;-74
2022/07/27 00:52:23;;;;;;;5.40;1.35;;;23.60;43.80;;;;;;5029674;28;20032;-74
2022/07/27 00:54:49;;;;;;;5.97;1.60;;;23.50;43.80;;;;;;5007480;28;20360;-73
2022/07/27 00:57:15;;;;;;;7.88;1.25;;;23.50;43.90;;;;;;5028276;28;20025;-74
2022/07/27 00:59:42;;;;;;;10.27;1.40;;;23.50;44.00;;;;;;5029798;28;20065;-74
2022/07/27 01:02:08;;;;;;;41.33;23.00;;;23.50;44.00;;;;;;5028251;28;20026;-74
2022/07/27 01:04:34;;;;;;;58.90;38.28;;;23.50;44.20;;;;;;5026563;28;20026;-74
2022/07/27 01:07:02;;;;;;;60.30;35.83;;;23.40;44.00;;;;;;5028275;28;20398;-73
2022/07/27 01:12:16;;;;;;;50.75;30.42;;;23.50;44.30;;;;;;5028845;28;20021;-73
2022/07/27 01:14:42;;;;;;;50.15;28.98;;;23.50;44.40;;;;;;5027778;28;20405;-73
2022/07/27 01:17:08;;;;;;;48.47;26.73;;;23.60;44.40;;;;;;5027510;28;20396;-73
2022/07/27 01:19:35;;;;;;;45.72;24.83;;;23.70;44.70;;;;;;5028888;28;20041;-72
2022/07/27 01:22:02;;;;;;;44.55;25.13;;;23.80;45.10;;;;;;5027483;28;20029;-73
2022/07/27 01:24:27;;;;;;;40.83;22.88;;;23.80;45.10;;;;;;5028808;28;20030;-73
2022/07/27 01:26:53;;;;;;;43.38;23.70;;;23.80;45.30;;;;;;5027460;28;20315;-73
2022/07/27 01:29:19;;;;;;;44.85;23.90;;;23.90;45.40;;;;;;5028849;28;20032;-73
2022/07/27 01:31:45;;;;;;;47.08;23.27;;;23.90;45.80;;;;;;5029012;28;20489;-73
2022/07/27 01:34:10;;;;;;;41.85;23.45;;;23.90;46.10;;;;;;5027526;28;20517;-73
2022/07/27 01:36:37;;;;;;;42.83;21.50;;;23.90;46.10;;;;;;5010665;28;20026;-73
2022/07/27 01:39:03;;;;;;;37.03;21.63;;;23.90;46.50;;;;;;5027408;28;20375;-73
2022/07/27 01:41:29;;;;;;;45.15;22.13;;;23.90;46.50;;;;;;5028877;28;20029;-73
2022/07/27 01:43:55;;;;;;;39.08;21.27;;;23.90;46.70;;;;;;5028774;28;20028;-73
2022/07/27 01:46:21;;;;;;;38.97;21.55;;;23.90;46.80;;;;;;5028755;28;20091;-73
2022/07/27 01:48:47;;;;;;;36.55;21.05;;;24.00;47.10;;;;;;5031279;28;20037;-74
2022/07/27 01:51:13;;;;;;;36.22;20.60;;;24.00;47.20;;;;;;5032573;28;20079;-73
2022/07/27 01:53:39;;;;;;;37.45;21.05;;;24.00;47.30;;;;;;5031225;28;20532;-73
2022/07/27 01:56:12;;;;;;;36.15;21.13;;;24.00;47.30;;;;;;5032058;28;20504;-73
2022/07/27 01:58:39;;;;;;;34.42;19.98;;;24.00;47.40;;;;;;5014736;28;20070;-73
2022/07/27 02:01:06;;;;;;;35.08;20.23;;;24.00;47.40;;;;;;5032289;28;20025;-73
2022/07/27 02:03:33;;;;;;;34.22;20.63;;;24.10;47.60;;;;;;5029674;28;20390;-73
2022/07/27 02:05:59;;;;;;;31.95;18.85;;;24.00;47.70;;;;;;5031997;28;20033;-73
2022/07/27 02:08:25;;;;;;;30.58;18.80;;;24.00;47.90;;;;;;5032192;28;20029;-73
2022/07/27 02:13:36;;;;;;;32.42;19.38;;;24.00;48.10;;;;;;5030805;28;20042;-73
2022/07/27 02:16:02;;;;;;;33.47;20.08;;;24.10;48.20;;;;;;5032152;28;20075;-74
2022/07/27 02:18:28;;;;;;;31.52;18.98;;;24.00;48.20;;;;;;5032107;28;20464;-73
2022/07/27 02:20:54;;;;;;;31.90;18.55;;;24.10;48.30;;;;;;5031783;28;20578;-73
2022/07/27 02:23:19;;;;;;;32.22;19.02;;;24.10;48.40;;;;;;5031989;28;20029;-73
2022/07/27 02:25:45;;;;;;;29.73;17.73;;;24.10;48.60;;;;;;5031785;28;20029;-74
2022/07/27 02:28:11;;;;;;;33.35;18.58;;;24.10;48.60;;;;;;5031655;28;20044;-73
2022/07/27 02:30:37;;;;;;;33.47;18.52;;;24.10;48.70;;;;;;5032111;28;20195;-74
2022/07/27 02:33:04;;;;;;;32.10;19.10;;;24.10;48.80;;;;;;5031722;28;22424;-73
2022/07/27 02:35:29;;;;;;;29.70;17.75;;;24.10;48.80;;;;;;5031535;28;20030;-73
2022/07/27 02:37:55;;;;;;;29.77;18.00;;;24.00;48.80;;;;;;5031468;28;20108;-72
2022/07/27 02:40:21;;;;;;;33.08;17.30;;;24.10;48.90;;;;;;5030449;28;20436;-72
2022/07/27 02:42:47;;;;;;;28.60;16.15;;;24.10;49.00;;;;;;5031520;28;20108;-72
2022/07/27 02:45:14;;;;;;;31.35;17.50;;;24.10;49.10;;;;;;5031024;28;20021;-72
2022/07/27 02:47:40;;;;;;;31.17;17.27;;;24.10;49.30;;;;;;5031433;28;20021;-72
2022/07/27 02:50:07;;;;;;;30.50;17.00;;;24.10;49.30;;;;;;5031444;28;20033;-72
2022/07/27 02:52:32;;;;;;;29.58;17.92;;;24.10;49.50;;;;;;5030096;28;20013;-72
2022/07/27 02:54:58;;;;;;;28.42;16.58;;;24.10;50.10;;;;;;5031296;28;20026;-72
2022/07/27 02:57:24;;;;;;;27.88;16.65;;;24.10;49.60;;;;;;5030642;28;20040;-72
2022/07/27 02:59:50;;;;;;;28.25;16.60;;;24.10;49.80;;;;;;5029981;28;20034;-72
2022/07/27 03:02:16;;;;;;;26.90;17.65;;;24.10;49.80;;;;;;5029854;28;20036;-72
2022/07/27 03:04:42;;;;;;;28.52;15.93;;;24.10;49.90;;;;;;5031090;28;20096;-72
2022/07/27 03:07:08;;;;;;;28.25;16.67;;;24.10;50.00;;;;;;5030985;28;20388;-72
2022/07/27 03:09:34;;;;;;;28.33;16.25;;;24.00;49.70;;;;;;5030922;28;20041;-73
2022/07/27 03:12:01;;;;;;;28.02;16.45;;;24.10;50.10;;;;;;5030935;28;20493;-73
2022/07/27 03:14:26;;;;;;;28.50;16.40;;;24.10;50.20;;;;;;5030110;28;20105;-73
2022/07/27 03:16:52;;;;;;;34.40;17.23;;;24.10;50.20;;;;;;5030727;28;20041;-72
2022/07/27 03:19:18;;;;;;;25.98;16.80;;;24.10;50.20;;;;;;5030765;28;20029;-73
2022/07/27 03:21:44;;;;;;;25.95;15.68;;;24.10;50.30;;;;;;5030783;28;20031;-72
2022/07/27 03:24:10;;;;;;;26.95;15.23;;;24.10;50.40;;;;;;5030694;28;20029;-72
2022/07/27 03:26:36;;;;;;;28.98;16.20;;;24.10;50.40;;;;;;5029356;28;20022;-72
2022/07/27 03:29:02;;;;;;;26.17;16.35;;;24.10;50.50;;;;;;5029147;28;20083;-72
2022/07/27 03:31:28;;;;;;;29.15;15.80;;;24.10;50.50;;;;;;5029989;28;20025;-72
2022/07/27 03:33:54;;;;;;;30.50;15.88;;;24.10;50.70;;;;;;5030422;28;20521;-72
2022/07/27 03:36:20;;;;;;;28.38;15.18;;;24.10;50.70;;;;;;5030413;28;20099;-73
2022/07/27 03:38:46;;;;;;;28.65;15.73;;;24.10;50.70;;;;;;5030904;28;20017;-73
2022/07/27 03:41:12;;;;;;;24.38;14.60;;;24.10;50.80;;;;;;5030108;28;20525;-72
2022/07/27 03:43:38;;;;;;;25.42;14.32;;;24.10;50.80;;;;;;5030295;28;20063;-72
2022/07/27 03:46:03;;;;;;;24.58;14.82;;;24.10;50.80;;;;;;5030022;28;20390;-72
2022/07/27 03:48:29;;;;;;;26.58;15.00;;;24.20;50.90;;;;;;5030333;28;20104;-72
2022/07/27 03:50:55;;;;;;;23.50;14.52;;;24.20;51.60;;;;;;5030240;28;20028;-71
2022/07/27 03:53:23;;;;;;;24.02;14.77;;;24.20;51.10;;;;;;5028913;28;20028;-72
2022/07/27 03:55:50;;;;;;;26.15;14.85;;;24.20;51.10;;;;;;5028769;28;20425;-72
2022/07/27 03:58:16;;;;;;;26.13;14.05;;;24.20;51.10;;;;;;5028548;28;20017;-72
2022/07/27 04:00:44;;;;;;;24.67;14.48;;;24.10;51.10;;;;;;5028409;28;20063;-72
2022/07/27 04:03:10;;;;;;;23.20;14.07;;;24.10;51.20;;;;;;5029941;28;20021;-73
2022/07/27 04:05:36;;;;;;;24.33;14.45;;;24.20;51.30;;;;;;5012011;28;20410;-73
2022/07/27 04:08:01;;;;;;;28.52;15.13;;;24.20;51.30;;;;;;5027252;28;20040;-73
2022/07/27 04:10:27;;;;;;;26.05;14.65;;;24.20;51.40;;;;;;5028236;28;20029;-72
2022/07/27 04:12:53;;;;;;;22.75;12.80;;;24.20;51.50;;;;;;5028537;28;20033;-72
2022/07/27 04:15:20;;;;;;;25.00;13.98;;;24.20;51.50;;;;;;5028320;28;20485;-72
2022/07/27 04:17:46;;;;;;;23.52;14.00;;;24.10;51.70;;;;;;5028750;28;20072;-72
2022/07/27 04:20:12;;;;;;;28.60;14.07;;;24.20;51.70;;;;;;4999362;28;20033;-72
2022/07/27 04:22:38;;;;;;;24.20;13.13;;;24.20;51.80;;;;;;5028263;28;20021;-71
2022/07/27 04:25:04;;;;;;;26.25;14.32;;;24.20;51.80;;;;;;5028312;28;20493;-72
2022/07/27 04:27:31;;;;;;;22.15;13.30;;;24.20;51.80;;;;;;5029536;28;20037;-72
2022/07/27 04:29:56;;;;;;;22.95;13.65;;;24.20;51.80;;;;;;5028196;28;20173;-72
2022/07/27 04:32:22;;;;;;;26.65;12.98;;;24.20;51.80;;;;;;5029398;28;20116;-73
2022/07/27 04:34:49;;;;;;;24.27;13.40;;;24.20;52.10;;;;;;5029435;28;20108;-72
2022/07/27 04:37:15;;;;;;;26.35;14.68;;;24.10;52.00;;;;;;5028255;28;20485;-72
2022/07/27 04:39:41;;;;;;;22.17;13.13;;;24.20;52.10;;;;;;5028172;28;20359;-71
2022/07/27 04:42:07;;;;;;;27.30;13.45;;;24.20;52.10;;;;;;5029267;28;20061;-72
2022/07/27 04:44:33;;;;;;;22.05;13.85;;;24.20;52.20;;;;;;5029460;28;20478;-72
2022/07/27 04:46:59;;;;;;;26.10;13.57;;;24.20;52.30;;;;;;5029217;28;20268;-72
2022/07/27 04:49:25;;;;;;;23.98;13.13;;;24.20;52.20;;;;;;5028074;28;20060;-72
2022/07/27 04:51:51;;;;;;;25.73;13.60;;;24.20;52.30;;;;;;5028030;28;20026;-72
2022/07/27 04:54:16;;;;;;;22.63;13.13;;;24.20;52.30;;;;;;5027720;28;20116;-73
2022/07/27 04:56:42;;;;;;;23.52;12.38;;;24.20;52.40;;;;;;5027819;28;20030;-73
2022/07/27 04:59:08;;;;;;;22.30;13.82;;;24.20;52.40;;;;;;5029229;28;20037;-73
2022/07/27 05:01:34;;;;;;;25.63;12.38;;;24.20;52.40;;;;;;5029221;28;20615;-72
2022/07/27 05:04:00;;;;;;;22.50;13.27;;;24.20;52.40;;;;;;5029148;28;20555;-73
2022/07/27 05:06:25;;;;;;;24.67;14.05;;;24.20;52.50;;;;;;5029062;28;20029;-73
2022/07/27 05:08:51;;;;;;;21.80;12.93;;;24.20;52.60;;;;;;5028903;28;20076;-73
2022/07/27 05:11:17;;;;;;;24.00;13.40;;;24.20;52.70;;;;;;5029066;28;20071;-72
2022/07/27 05:13:43;;;;;;;22.67;13.00;;;24.20;52.70;;;;;;5028981;28;20048;-73
2022/07/27 05:16:09;;;;;;;23.15;12.55;;;24.20;52.60;;;;;;5027735;28;20516;-73
2022/07/27 05:18:36;;;;;;;23.17;12.50;;;24.20;52.60;;;;;;5029167;28;20030;-73
2022/07/27 05:21:03;;;;;;;20.05;12.45;;;24.20;52.70;;;;;;5027441;28;20021;-73
2022/07/27 05:23:29;;;;;;;21.73;12.00;;;24.20;52.60;;;;;;5032814;28;20028;-73
2022/07/27 05:25:55;;;;;;;22.85;12.18;;;24.20;52.70;;;;;;5032606;28;20056;-73
2022/07/27 05:28:21;;;;;;;20.35;12.50;;;24.20;52.80;;;;;;5031891;28;20029;-73
2022/07/27 05:30:47;;;;;;;21.35;12.07;;;24.20;53.30;;;;;;5033326;28;20359;-72
2022/07/27 05:33:12;;;;;;;24.35;13.10;;;24.20;52.80;;;;;;5031585;28;20025;-73
2022/07/27 05:35:38;;;;;;;23.38;12.07;;;24.20;52.80;;;;;;5032451;28;20056;-73
2022/07/27 05:38:04;;;;;;;20.27;12.23;;;24.20;52.90;;;;;;5032901;28;20399;-72
2022/07/27 05:40:30;;;;;;;21.23;12.25;;;24.20;52.80;;;;;;5032764;28;20036;-73
2022/07/27 05:42:56;;;;;;;20.30;12.13;;;24.20;52.80;;;;;;5032559;28;20025;-73
2022/07/27 05:45:22;;;;;;;21.80;11.75;;;24.20;52.80;;;;;;5032137;28;20389;-73
2022/07/27 05:47:48;;;;;;;20.65;11.77;;;24.20;52.90;;;;;;5031824;28;20390;-73
2022/07/27 05:50:15;;;;;;;21.02;11.57;;;24.30;53.00;;;;;;5032312;28;20024;-73
2022/07/27 05:52:42;;;;;;;21.48;12.48;;;24.30;53.10;;;;;;5032323;28;20025;-73
2022/07/27 05:55:08;;;;;;;23.60;12.27;;;24.20;53.10;;;;;;5030858;28;20481;-74
2022/07/27 05:57:34;;;;;;;18.85;11.52;;;24.30;53.20;;;;;;5032613;28;20504;-73
2022/07/27 06:00:00;;;;;;;22.45;11.60;;;24.30;53.20;;;;;;5032330;28;20021;-73
2022/07/27 06:02:30;;;;;;;20.30;11.55;;;24.30;53.20;;;;;;5032251;28;20029;-73
2022/07/27 06:04:56;;;;;;;19.25;11.73;;;24.20;53.10;;;;;;5032164;28;20486;-72
2022/07/27 06:10:07;;;;;;;19.08;11.07;;;24.30;53.30;;;;;;5032140;28;20589;-72
2022/07/27 06:12:41;;;;;;;21.83;11.57;;;24.20;53.20;;;;;;5031007;28;20025;-72
2022/07/27 06:15:09;;;;;;;21.90;11.10;;;24.30;53.30;;;;;;5013996;28;20079;-73
2022/07/27 06:17:35;;;;;;;19.58;10.73;;;24.30;53.60;;;;;;5030819;28;20022;-72
2022/07/27 06:20:03;;;;;;;20.42;11.07;;;24.30;53.30;;;;;;5030923;28;20471;-72
2022/07/27 06:22:29;;;;;;;19.90;10.85;;;24.20;53.30;;;;;;5032151;28;20022;-72
2022/07/27 06:24:54;;;;;;;21.17;10.63;;;24.20;53.60;;;;;;5032060;28;20083;-72
2022/07/27 06:27:20;;;;;;;21.55;10.82;;;24.20;53.50;;;;;;5031661;28;20398;-72
2022/07/27 06:29:46;;;;;;;20.65;10.80;;;24.20;53.50;;;;;;5030670;28;20556;-73
2022/07/27 06:32:12;;;;;;;21.95;10.65;;;24.20;53.50;;;;;;5031031;28;20025;-73
2022/07/27 06:34:37;;;;;;;20.08;10.38;;;24.30;53.60;;;;;;5030320;28;20030;-73
2022/07/27 06:37:03;;;;;;;19.30;10.65;;;24.20;53.50;;;;;;5030205;28;20022;-73
2022/07/27 06:39:29;;;;;;;20.30;11.02;;;24.30;53.70;;;;;;5013989;28;20501;-73
2022/07/27 06:41:55;;;;;;;21.65;10.52;;;24.30;53.60;;;;;;5030204;28;20033;-73
2022/07/27 06:44:21;;;;;;;17.52;9.93;;;24.20;53.60;;;;;;5031660;28;20021;-73
2022/07/27 06:46:47;;;;;;;19.23;9.93;;;24.20;53.70;;;;;;5029587;28;20032;-74
2022/07/27 06:49:13;;;;;;;19.92;11.07;;;24.30;53.70;;;;;;5030306;28;20029;-73
2022/07/27 06:51:39;;;;;;;18.75;10.48;;;24.20;53.70;;;;;;5030197;28;20489;-73
2022/07/27 06:54:05;;;;;;;17.45;9.77;;;24.20;53.80;;;;;;5031549;28;20041;-73
2022/07/27 06:56:31;;;;;;;22.38;10.50;;;24.20;53.80;;;;;;5031000;28;20021;-73
2022/07/27 06:58:57;;;;;;;20.88;10.63;;;24.20;53.80;;;;;;5030429;28;20025;-73
2022/07/27 07:01:23;;;;;;;20.00;10.18;;;24.20;53.90;;;;;;5031484;28;20369;-73
2022/07/27 07:03:48;;;;;;;20.70;10.52;;;24.20;54.00;;;;;;5031641;28;20030;-73
2022/07/27 07:06:14;;;;;;;17.05;9.57;;;24.30;53.90;;;;;;5029844;28;20096;-73
2022/07/27 07:08:40;;;;;;;17.88;10.20;;;24.30;53.90;;;;;;5031186;28;20033;-73
2022/07/27 07:11:08;;;;;;;18.45;10.70;;;24.30;54.00;;;;;;5029736;28;20389;-73
2022/07/27 07:13:34;;;;;;;17.98;9.65;;;24.30;54.00;;;;;;5029610;28;20108;-72
2022/07/27 07:15:59;;;;;;;17.33;9.82;;;24.30;54.00;;;;;;5030709;28;20025;-72
2022/07/27 07:18:25;;;;;;;22.73;10.30;;;24.30;54.00;;;;;;5030844;28;20392;-73
2022/07/27 07:20:51;;;;;;;18.42;9.60;;;24.30;53.90;;;;;;5029646;28;20032;-73
2022/07/27 07:23:17;;;;;;;18.92;9.50;;;24.30;53.90;;;;;;5011911;28;20041;-73
2022/07/27 07:25:43;;;;;;;20.13;9.82;;;24.30;53.90;;;;;;5030521;28;20048;-73
2022/07/27 07:28:08;;;;;;;17.67;9.82;;;24.30;54.00;;;;;;5029529;28;20544;-72
2022/07/27 07:30:34;;;;;;;18.80;9.73;;;24.30;54.10;;;;;;5030562;28;20450;-73
2022/07/27 07:33:01;;;;;;;17.35;9.13;;;24.30;54.20;;;;;;5030756;28;20092;-73
2022/07/27 07:35:27;;;;;;;21.33;9.52;;;24.30;54.20;;;;;;5030260;28;20034;-72
2022/07/27 07:37:53;;;;;;;18.63;10.77;;;24.30;54.10;;;;;;5032370;28;20466;-73
2022/07/27 07:40:19;;;;;;;19.00;9.50;;;24.30;54.60;;;;;;5032726;28;20036;-72
2022/07/27 07:42:56;;;;;;;17.45;9.32;;;24.30;54.60;;;;;;5014256;28;20041;-73
2022/07/27 07:45:23;;;;;;;17.65;9.63;;;24.40;54.60;;;;;;5031509;28;20435;-73
2022/07/27 07:47:49;;;;;;;21.10;9.93;;;24.30;54.50;;;;;;5014813;28;20029;-73
2022/07/27 07:50:16;;;;;;;19.23;9.18;;;24.30;54.70;;;;;;5032873;28;20025;-73
2022/07/27 07:52:43;;;;;;;21.45;10.15;;;24.30;54.40;;;;;;5031333;28;20120;-72
2022/07/27 07:55:09;;;;;;;17.17;9.13;;;24.30;54.40;;;;;;5014275;28;20060;-73
2022/07/27 07:57:35;;;;;;;18.55;9.15;;;24.30;54.60;;;;;;5032377;28;20083;-73
2022/07/27 08:00:03;;;;;;;16.98;9.27;;;24.30;54.50;;;;;;5014713;28;20033;-73
2022/07/27 08:02:48;;;;;;;17.92;8.88;;;24.30;54.50;;;;;;5031614;28;20021;-73
2022/07/27 08:05:14;;;;;;;15.93;9.18;;;24.30;54.30;;;;;;5030683;28;20132;-72
2022/07/27 08:07:42;;;;;;;16.73;8.50;;;24.30;54.50;;;;;;5030989;28;20029;-73
2022/07/27 08:10:10;;;;;;;22.88;9.00;;;24.30;54.50;;;;;;5031240;28;20029;-73
2022/07/27 08:12:40;;;;;;;17.98;8.77;;;24.30;54.50;;;;;;5031829;28;20029;-73
2022/07/27 08:15:07;;;;;;;17.15;8.98;;;24.30;54.70;;;;;;5031805;28;20436;-73
2022/07/27 08:17:33;;;;;;;15.13;8.52;;;24.30;54.70;;;;;;5030676;28;20501;-73
2022/07/27 08:19:59;;;;;;;15.68;7.70;;;24.30;54.70;;;;;;5031946;28;20056;-73
2022/07/27 08:22:25;;;;;;;22.23;8.75;;;24.30;54.80;;;;;;5030597;28;20032;-73
2022/07/27 08:24:50;;;;;;;16.92;8.65;;;24.30;54.60;;;;;;5030557;28;20037;-74
2022/07/27 08:27:17;;;;;;;17.50;8.10;;;24.30;54.90;;;;;;5031332;28;20087;-73
2022/07/27 08:29:43;;;;;;;16.10;7.57;;;24.30;55.10;;;;;;5030882;28;20425;-73
2022/07/27 08:32:09;;;;;;;16.98;7.68;;;24.30;55.10;;;;;;5029935;28;20017;-73
2022/07/27 08:34:35;;;;;;;19.00;8.57;;;24.40;55.40;;;;;;5030811;28;20375;-73
2022/07/27 08:37:00;;;;;;;18.65;8.00;;;24.40;56.00;;;;;;5031415;28;20071;-73
2022/07/27 08:39:26;;;;;;;17.63;8.55;;;24.40;55.50;;;;;;5030579;28;20413;-74
2022/07/27 08:41:53;;;;;;;16.08;8.55;;;24.40;56.20;;;;;;5013858;28;20029;-72
2022/07/27 08:44:23;;;;;;;19.63;9.40;;;24.40;55.60;;;;;;5031644;28;20481;-71
2022/07/27 08:46:50;;;;;;;22.67;14.00;;;24.40;54.80;;;;;;5031169;28;20386;-75
2022/07/27 08:49:17;;;;;;;20.95;10.73;;;24.30;53.50;;;;;;5031625;28;20490;-75
2022/07/27 08:51:43;;;;;;;19.13;8.55;;;24.30;52.20;;;;;;5031500;28;20080;-75
2022/07/27 08:54:09;;;;;;;14.40;5.22;;;24.30;53.30;;;;;;5027826;28;20021;-75
2022/07/27 08:56:36;;;;;;;17.83;8.18;;;24.20;50.80;;;;;;5029612;28;20032;-76
2022/07/27 08:59:03;;;;;;;11.93;5.10;;;24.30;52.10;;;;;;5029997;28;20026;-74
2022/07/27 09:01:34;;;;;;;12.68;6.00;;;24.20;49.90;;;;;;5009883;28;20104;-72
2022/07/27 09:04:00;;;;;;;14.23;6.05;;;24.30;50.20;;;;;;5026663;28;20025;-72
2022/07/27 09:06:44;;;;;;;18.27;5.85;;;24.30;50.70;;;;;;5027516;28;20040;-72
2022/07/27 09:09:12;;;;;;;15.07;5.65;;;24.30;50.30;;;;;;5029275;28;20440;-72
2022/07/27 09:11:38;;;;;;;14.52;6.28;;;24.30;50.60;;;;;;5028356;28;20029;-72
2022/07/27 09:14:08;;;;;;;18.58;5.97;;;24.40;51.10;;;;;;5029519;28;20036;-72
2022/07/27 09:16:34;;;;;;;12.00;5.07;;;24.40;51.30;;;;;;5027683;28;20494;-72
2022/07/27 09:19:05;;;;;;;12.68;5.68;;;24.40;51.40;;;;;;5028434;28;20044;-73
2022/07/27 09:21:31;;;;;;;13.63;5.45;;;24.40;51.30;;;;;;5029366;28;20029;-73
2022/07/27 09:24:12;;;;;;;12.30;5.30;;;24.40;51.30;;;;;;5011535;28;20481;-72
2022/07/27 09:26:39;;;;;;;14.05;6.07;;;24.40;51.70;;;;;;5011828;28;20045;-72
2022/07/27 09:29:08;;;;;;;11.40;4.82;;;24.40;51.60;;;;;;5029539;28;20037;-73
2022/07/27 09:31:46;;;;;;;13.18;5.80;;;24.40;52.10;;;;;;5029089;28;20059;-73
2022/07/27 09:34:13;;;;;;;13.07;5.57;;;24.40;52.00;;;;;;5029183;28;20069;-73
2022/07/27 09:36:53;;;;;;;12.98;5.15;;;24.40;52.20;;;;;;5029268;28;20029;-73
2022/07/27 09:39:21;;;;;;;11.45;4.82;;;24.40;52.10;;;;;;5029001;28;20121;-73
2022/07/27 09:41:53;;;;;;;11.93;5.30;;;24.40;52.40;;;;;;5025158;28;20421;-72
2022/07/27 09:44:37;;;;;;;12.57;5.65;;;24.40;52.60;;;;;;5029687;28;20043;-73
2022/07/27 09:47:25;;;;;;;12.00;5.35;;;24.40;52.50;;;;;;5028701;28;20038;-72
2022/07/27 09:49:51;;;;;;;14.23;5.60;;;24.30;52.60;;;;;;5028013;28;20482;-72
2022/07/27 09:52:29;;;;;;;10.98;4.80;;;24.30;52.60;;;;;;5029109;28;20037;-72
2022/07/27 09:55:05;;;;;;;9.27;4.43;;;24.30;52.70;;;;;;5028304;28;20205;-72
2022/07/27 09:57:58;;;;;;;13.10;5.32;;;24.30;52.80;;;;;;5028105;28;20033;-73
2022/07/27 10:00:25;;;;;;;21.73;6.20;;;24.30;53.10;;;;;;5030134;28;20026;-72
2022/07/27 10:02:52;;;;;;;25.25;6.28;;;24.40;53.30;;;;;;5030732;28;20053;-72
2022/07/27 10:05:21;;;;;;;23.23;5.95;;;24.40;53.30;;;;;;5030663;28;20469;-73
2022/07/27 10:07:52;;;;;;;22.65;6.22;;;24.40;53.20;;;;;;5030635;28;20057;-73
2022/07/27 10:10:18;;;;;;;21.58;6.00;;;24.40;53.30;;;;;;5034482;28;20112;-73
2022/07/27 10:12:44;;;;;;;21.65;5.90;;;24.40;53.60;;;;;;5031384;28;20029;-72
2022/07/27 10:15:11;;;;;;;16.88;5.53;;;24.40;53.70;;;;;;5034105;28;20033;-73
2022/07/27 10:17:39;;;;;;;28.75;6.90;;;24.40;53.50;;;;;;5034485;28;20022;-72
2022/07/27 10:20:09;;;;;;;33.53;6.95;;;24.40;53.40;;;;;;5034667;28;20051;-72
2022/07/27 10:22:57;;;;;;;16.95;5.57;;;24.40;53.50;;;;;;5034308;28;20544;-72
2022/07/27 10:25:25;;;;;;;27.52;6.03;;;24.40;53.50;;;;;;5034445;28;20033;-72
2022/07/27 10:28:12;;;;;;;16.88;5.55;;;24.40;53.70;;;;;;5034379;28;20034;-71
2022/07/27 10:30:38;;;;;;;23.02;5.47;;;24.40;53.80;;;;;;5034428;28;20029;-71
2022/07/27 10:33:53;;;;;;;22.30;5.53;;;24.50;53.90;;;;;;5034082;28;20052;-71
2022/07/27 10:36:21;;;;;;;20.40;6.18;;;24.50;54.00;;;;;;5034088;28;20026;-72
2022/07/27 10:38:55;;;;;;;30.30;5.80;;;24.40;53.80;;;;;;5034284;28;20120;-72
2022/07/27 10:41:27;;;;;;;19.88;5.60;;;24.50;53.90;;;;;;5034433;28;20385;-70
2022/07/27 10:44:13;;;;;;;20.77;5.38;;;24.50;53.80;;;;;;5034027;28;20025;-71
2022/07/27 10:46:51;;;;;;;19.33;5.70;;;24.40;53.80;;;;;;5032493;28;20378;-71
2022/07/27 10:49:18;;;;;;;18.90;5.43;;;24.40;53.80;;;;;;5032815;28;20112;-72
2022/07/27 10:51:44;;;;;;;20.15;5.35;;;24.50;53.80;;;;;;5034174;28;20029;-72
2022/07/27 10:54:26;;;;;;;17.10;5.20;;;24.40;53.80;;;;;;5034055;28;20113;-71
2022/07/27 10:56:56;;;;;;;17.45;5.30;;;24.40;53.80;;;;;;5033578;28;20151;-72
2022/07/27 10:59:43;;;;;;;16.42;5.25;;;24.40;53.80;;;;;;5033896;28;20026;-72
2022/07/27 11:02:11;;;;;;;18.33;5.75;;;24.40;53.90;;;;;;5032847;28;20470;-72
2022/07/27 11:04:49;;;;;;;17.27;5.53;;;24.40;53.90;;;;;;5033660;28;20056;-72
2022/07/27 11:07:17;;;;;;;17.45;5.40;;;24.40;53.90;;;;;;5032195;28;20072;-71
2022/07/27 11:09:44;;;;;;;17.48;5.70;;;24.40;54.40;;;;;;5034071;28;20487;-71
2022/07/27 11:12:11;;;;;;;20.52;5.53;;;24.40;54.30;;;;;;5033534;28;20405;-71
2022/07/27 11:14:44;;;;;;;18.80;5.25;;;24.40;54.20;;;;;;5029426;28;20025;-71
2022/07/27 11:17:09;;;;;;;23.08;5.80;;;24.40;54.30;;;;;;5031962;28;20037;-70
2022/07/27 11:19:35;;;;;;;20.15;5.53;;;24.40;54.50;;;;;;5033256;28;20033;-71
2022/07/27 11:22:02;;;;;;;21.95;6.38;;;24.40;54.50;;;;;;5033332;28;20422;-71
2022/07/27 11:24:27;;;;;;;17.40;5.68;;;24.40;54.50;;;;;;5033330;28;20437;-72
2022/07/27 11:26:53;;;;;;;18.08;5.32;;;24.40;54.50;;;;;;5033120;28;20048;-71
2022/07/27 11:29:22;;;;;;;16.73;5.80;;;24.40;54.50;;;;;;5031996;28;20537;-72
2022/07/27 11:31:51;;;;;;;18.52;5.72;;;24.40;54.50;;;;;;5033049;28;20547;-71
2022/07/27 11:34:18;;;;;;;17.38;4.72;;;24.40;54.60;;;;;;5032866;28;20033;-71
2022/07/27 11:36:51;;;;;;;19.25;5.43;;;24.40;54.70;;;;;;5032810;28;20022;-70
2022/07/27 11:39:25;;;;;;;16.25;5.20;;;24.40;54.70;;;;;;5032941;28;20509;-70
2022/07/27 11:41:56;;;;;;;13.52;5.47;;;24.40;54.60;;;;;;5032866;28;20509;-71
2022/07/27 11:44:22;;;;;;;12.85;5.47;;;24.40;54.70;;;;;;5032888;28;20060;-70
2022/07/27 11:46:51;;;;;;;11.90;5.18;;;24.40;54.70;;;;;;5032621;28;20061;-71
2022/07/27 11:49:27;;;;;;;19.05;5.07;;;24.40;54.70;;;;;;5032868;28;20033;-70
2022/07/27 11:52:01;;;;;;;18.70;4.75;;;24.40;54.90;;;;;;5032875;28;20067;-71
2022/07/27 11:54:30;;;;;;;12.15;5.03;;;24.40;54.90;;;;;;5032578;28;20033;-72
2022/07/27 11:57:00;;;;;;;17.48;4.40;;;24.40;54.80;;;;;;5032959;28;20018;-71
2022/07/27 11:59:37;;;;;;;18.45;5.38;;;24.40;55.10;;;;;;5032417;28;20033;-72
2022/07/27 12:02:14;;;;;;;13.45;4.50;;;24.40;54.80;;;;;;5032600;28;20025;-71
2022/07/27 12:04:43;;;;;;;11.75;4.32;;;24.40;55.10;;;;;;5032364;28;20033;-71
2022/07/27 12:07:12;;;;;;;15.25;4.65;;;24.40;55.00;;;;;;5032279;28;20485;-71
2022/07/27 12:09:43;;;;;;;17.40;5.53;;;24.30;55.20;;;;;;5031188;28;20029;-71
2022/07/27 12:12:15;;;;;;;14.80;4.82;;;24.40;55.40;;;;;;5031317;28;20130;-71
2022/07/27 12:14:55;;;;;;;14.20;4.88;;;24.50;55.80;;;;;;5032238;28;20128;-71
2022/07/27 12:17:29;;;;;;;19.30;5.03;;;24.50;55.00;;;;;;5032208;28;20018;-73
2022/07/27 12:19:59;;;;;;;22.90;5.68;;;24.50;56.10;;;;;;5032393;28;20374;-71
2022/07/27 12:22:55;;;;;;;15.10;4.78;;;24.70;57.00;;;;;;5031131;28;20057;-70
2022/07/27 12:25:22;;;;;;;18.30;4.40;;;24.60;55.50;;;;;;5028932;28;20052;-70
2022/07/27 12:28:09;;;;;;;13.65;4.65;;;24.70;55.80;;;;;;5032154;28;20030;-69
2022/07/27 12:30:48;;;;;;;17.63;6.35;;;24.60;55.00;;;;;;5031535;28;20490;-70
2022/07/27 12:33:28;;;;;;;27.00;9.93;;;24.60;54.20;;;;;;5031853;28;20068;-69
2022/07/27 12:35:56;;;;;;;20.02;7.63;;;24.50;51.80;;;;;;5031707;28;20021;-67
2022/07/27 12:38:22;;;;;;;15.13;5.38;;;24.50;52.00;;;;;;5032366;28;20363;-68
2022/07/27 12:40:52;;;;;;;14.98;6.10;;;24.40;52.30;;;;;;5032039;28;20029;-69
2022/07/27 12:43:19;;;;;;;;;;;24.40;50.10;;;;;;5032177;28;20048;-69
2022/07/27 12:45:49;;;;;;;12.57;4.72;;;24.40;49.60;;;;;;5031534;28;20292;-70